Terminal Aerodrome Forecast
Issued by NWS

Home | Current Version | Previous Version | Text Only | Print | Product List | Glossary On
Versions: 1 2 3 4 5 6 7 8 9 10 11 12 13 14
115
FTUS45 KABQ 220540
TAFTCC
TAF
KTCC 220540Z 2206/2306 22011KT P6SM SCT100
     FM221600 19015G23KT P6SM SCT100
     FM222200 17015G23KT P6SM SCT060 SCT100
     FM230000 16012G20KT P6SM VCTS SCT060CB BKN100
     FM230300 16012KT P6SM VCSH BKN050=

USA.gov is the U.S. government's official web portal to all federal, state and local government web resources and services.